Time;durP1;ratioP1;P1;durP2;ratioP2;P2;SDS_P1;SDS_P2;PMS_P1;PMS_P2;Temp;Humidity;BMP_temperature;BMP_pressure;BME280_temperature;BME280_humidity;BME280_pressure;Samples;Min_cycle;Max_cycle;Signal;HPM_P1;HPM_P2
2023/05/07 03:09:36;;;;;;;23.10;21.90;;;12.70;99.90;;;;;;5550035;23;20899;-79
2023/05/07 03:12:03;;;;;;;20.97;19.77;;;12.70;99.90;;;;;;4968703;28;20456;-77
2023/05/07 03:14:30;;;;;;;21.50;20.20;;;12.70;99.90;;;;;;4970397;28;20462;-79
2023/05/07 03:16:56;;;;;;;20.93;19.90;;;12.70;99.90;;;;;;4970287;28;20456;-79
2023/05/07 03:19:23;;;;;;;22.00;20.97;;;12.70;99.90;;;;;;4970146;28;20459;-78
2023/05/07 03:21:50;;;;;;;22.90;21.60;;;12.70;99.90;;;;;;4970175;28;20594;-78
2023/05/07 03:24:16;;;;;;;23.10;21.77;;;12.60;99.90;;;;;;4970908;28;20460;-79
2023/05/07 03:26:44;;;;;;;22.30;21.03;;;12.50;99.90;;;;;;4970675;28;20459;-79
2023/05/07 03:29:11;;;;;;;22.10;21.00;;;12.40;99.90;;;;;;4972100;28;20451;-79
2023/05/07 03:31:38;;;;;;;25.53;23.53;;;12.40;99.90;;;;;;4975481;28;20452;-76
2023/05/07 03:34:05;;;;;;;24.80;23.20;;;12.40;99.90;;;;;;4982515;28;20470;-77
2023/05/07 03:36:32;;;;;;;22.63;21.23;;;12.30;99.90;;;;;;4981865;28;20545;-79
2023/05/07 03:38:58;;;;;;;21.53;20.43;;;12.20;99.90;;;;;;4975761;28;20448;-79
2023/05/07 03:41:25;;;;;;;22.60;21.23;;;12.20;99.90;;;;;;4970618;28;20487;-78
2023/05/07 03:43:53;;;;;;;22.77;21.47;;;12.30;99.90;;;;;;4970467;28;20460;-79
2023/05/07 03:46:20;;;;;;;22.80;21.60;;;12.30;99.90;;;;;;4970779;28;20459;-79
2023/05/07 03:48:47;;;;;;;23.60;22.37;;;12.30;99.90;;;;;;4970817;28;20451;-77
2023/05/07 03:51:13;;;;;;;24.47;22.97;;;12.20;99.90;;;;;;4974127;28;20447;-79
2023/05/07 03:53:40;;;;;;;22.53;21.13;;;12.20;99.90;;;;;;4974554;28;20938;-78
2023/05/07 03:56:07;;;;;;;22.30;21.10;;;12.30;99.90;;;;;;4974517;28;20455;-77
2023/05/07 03:58:34;;;;;;;23.20;21.90;;;12.20;99.90;;;;;;4974650;28;20479;-79
2023/05/07 04:01:02;;;;;;;22.70;21.60;;;12.30;99.90;;;;;;4974428;28;20538;-78
2023/05/07 04:03:29;;;;;;;24.20;22.63;;;12.20;99.90;;;;;;4973246;28;20470;-77
2023/05/07 04:05:56;;;;;;;24.43;22.77;;;12.30;99.90;;;;;;4973409;28;20467;-77
2023/05/07 04:08:22;;;;;;;22.30;20.90;;;12.30;99.90;;;;;;4970518;28;20470;-75
2023/05/07 04:10:54;;;;;;;22.10;20.90;;;12.20;99.90;;;;;;4973818;28;20486;-74
2023/05/07 04:13:21;;;;;;;22.80;21.20;;;12.20;99.90;;;;;;4974364;28;20447;-77
2023/05/07 04:15:48;;;;;;;23.60;22.40;;;12.30;99.90;;;;;;4974574;28;20859;-78
2023/05/07 04:18:17;;;;;;;22.70;21.50;;;12.40;99.90;;;;;;4974321;28;20858;-76
2023/05/07 04:20:43;;;;;;;23.60;22.40;;;12.40;99.90;;;;;;4973887;28;20467;-76
2023/05/07 04:23:10;;;;;;;24.93;23.27;;;12.40;99.90;;;;;;4973922;28;20546;-76
2023/05/07 04:25:37;;;;;;;23.70;22.30;;;12.40;99.90;;;;;;4974029;28;20459;-77
2023/05/07 04:28:04;;;;;;;22.07;21.00;;;12.60;99.90;;;;;;4974257;28;20447;-76
2023/05/07 04:30:30;;;;;;;23.13;21.83;;;12.60;99.90;;;;;;4974186;28;20482;-77
2023/05/07 04:32:57;;;;;;;25.70;24.00;;;12.60;99.90;;;;;;4974003;28;20452;-77
2023/05/07 04:35:25;;;;;;;25.23;23.73;;;12.60;99.90;;;;;;4974045;28;20483;-77
2023/05/07 04:37:52;;;;;;;24.37;23.07;;;12.70;99.90;;;;;;4973741;28;20819;-76
2023/05/07 04:40:19;;;;;;;23.63;22.07;;;12.80;99.90;;;;;;4974051;28;20455;-77
2023/05/07 04:42:45;;;;;;;23.00;21.80;;;13.00;99.90;;;;;;4973788;28;21012;-76
2023/05/07 04:45:13;;;;;;;23.00;21.60;;;13.10;99.90;;;;;;4973881;28;20821;-76
2023/05/07 04:47:39;;;;;;;21.53;20.43;;;13.30;99.90;;;;;;4973682;28;21170;-76
2023/05/07 04:50:08;;;;;;;19.40;18.50;;;13.70;99.90;;;;;;4973738;28;20451;-77
2023/05/07 04:52:36;;;;;;;20.47;19.37;;;13.90;99.90;;;;;;4973851;28;20908;-78
2023/05/07 04:55:02;;;;;;;19.97;18.73;;;13.90;99.90;;;;;;4973782;28;20460;-78
2023/05/07 04:57:29;;;;;;;19.27;18.37;;;13.90;99.90;;;;;;4973702;28;20830;-77
2023/05/07 04:59:56;;;;;;;19.93;18.83;;;13.90;99.90;;;;;;4973605;28;20543;-79
2023/05/07 05:02:23;;;;;;;19.63;18.73;;;13.90;99.90;;;;;;4970872;28;20502;-76
2023/05/07 05:04:49;;;;;;;17.37;16.57;;;14.00;99.90;;;;;;4973519;28;20466;-77
2023/05/07 05:07:16;;;;;;;19.20;18.20;;;13.90;99.90;;;;;;4973360;28;20956;-78
2023/05/07 05:09:44;;;;;;;19.63;18.50;;;13.90;99.90;;;;;;4973032;28;20818;-78
2023/05/07 05:12:11;;;;;;;19.20;18.40;;;13.80;99.90;;;;;;4973370;28;20487;-78
2023/05/07 05:14:38;;;;;;;18.33;17.33;;;13.90;99.90;;;;;;4973171;28;20456;-79
2023/05/07 05:17:04;;;;;;;18.87;17.77;;;13.90;99.90;;;;;;4973155;28;20979;-80
2023/05/07 05:19:31;;;;;;;20.07;19.07;;;13.90;99.90;;;;;;4973267;28;20937;-78
2023/05/07 05:21:58;;;;;;;18.90;18.03;;;14.00;99.90;;;;;;4973100;28;20510;-78
2023/05/07 05:24:24;;;;;;;20.50;19.50;;;14.00;99.90;;;;;;4972885;28;20754;-78
2023/05/07 05:26:54;;;;;;;19.70;18.37;;;14.10;99.90;;;;;;4973237;28;20462;-77
2023/05/07 05:29:21;;;;;;;18.50;17.50;;;14.30;99.90;;;;;;4972960;28;20464;-78
2023/05/07 05:31:47;;;;;;;15.87;15.07;;;14.60;99.90;;;;;;4973073;28;20459;-80
2023/05/07 05:34:14;;;;;;;15.93;14.97;;;15.00;99.90;;;;;;4972929;28;20468;-82
2023/05/07 05:36:41;;;;;;;14.93;14.10;;;15.70;99.90;;;;;;4972840;28;20447;-81
2023/05/07 05:39:08;;;;;;;14.43;13.47;;;16.30;99.90;;;;;;4972789;28;20459;-81
2023/05/07 05:41:35;;;;;;;14.30;13.30;;;17.00;99.90;;;;;;4972692;28;20997;-80
2023/05/07 05:44:03;;;;;;;16.00;15.20;;;17.50;99.90;;;;;;4972881;28;20460;-82
2023/05/07 05:46:31;;;;;;;16.20;15.13;;;18.30;99.90;;;;;;4972802;28;20458;-83
2023/05/07 05:48:58;;;;;;;15.50;14.80;;;19.20;99.90;;;;;;4973567;28;20456;-80
2023/05/07 05:51:26;;;;;;;13.60;13.00;;;19.80;99.90;;;;;;4972490;28;20487;-80
2023/05/07 05:53:53;;;;;;;14.40;13.50;;;20.10;99.90;;;;;;4972541;28;20554;-76
2023/05/07 05:56:19;;;;;;;15.20;14.50;;;19.90;99.90;;;;;;4972740;28;20865;-76
2023/05/07 05:58:47;;;;;;;15.70;15.00;;;19.80;99.90;;;;;;4972470;28;20455;-76
2023/05/07 06:01:15;;;;;;;15.37;14.30;;;19.40;99.90;;;;;;4972139;28;20461;-76
2023/05/07 06:03:41;;;;;;;13.27;12.67;;;19.10;99.90;;;;;;4972072;28;20462;-75
2023/05/07 06:06:08;;;;;;;14.33;13.63;;;19.00;99.90;;;;;;4972098;28;20532;-78
2023/05/07 06:08:35;;;;;;;16.60;15.63;;;19.30;99.90;;;;;;4972304;28;20471;-75
2023/05/07 06:11:02;;;;;;;13.77;13.17;;;19.70;99.90;;;;;;4972300;28;20455;-76
2023/05/07 06:13:29;;;;;;;14.10;13.30;;;20.30;99.90;;;;;;4970983;28;20447;-75
2023/05/07 06:15:55;;;;;;;14.83;14.13;;;20.80;99.90;;;;;;4971986;28;20564;-75
2023/05/07 06:18:23;;;;;;;15.63;14.73;;;21.00;99.90;;;;;;4971963;28;20451;-76
2023/05/07 06:20:50;;;;;;;16.33;14.63;;;21.00;99.90;;;;;;4972101;28;20452;-75
2023/05/07 06:23:17;;;;;;;16.10;15.30;;;21.10;99.90;;;;;;4972065;28;20496;-77
2023/05/07 06:25:46;;;;;;;14.70;13.90;;;21.00;99.90;;;;;;4971751;28;20463;-78
2023/05/07 06:28:13;;;;;;;15.17;14.10;;;20.90;99.90;;;;;;4971691;28;20455;-84
2023/05/07 06:30:40;;;;;;;15.77;14.97;;;20.70;99.90;;;;;;4966653;28;20600;-77
2023/05/07 06:33:06;;;;;;;21.33;14.30;;;20.60;99.90;;;;;;4971604;28;20941;-78
2023/05/07 06:35:34;;;;;;;17.83;16.90;;;20.40;99.90;;;;;;4971826;28;20539;-78
2023/05/07 06:38:01;;;;;;;15.17;14.40;;;20.50;99.90;;;;;;4971614;28;20880;-80
2023/05/07 06:40:28;;;;;;;15.30;14.50;;;20.50;99.90;;;;;;4971701;28;20455;-80
2023/05/07 06:42:55;;;;;;;16.87;15.87;;;20.60;99.90;;;;;;4971540;28;20487;-79
2023/05/07 06:45:22;;;;;;;15.93;14.90;;;20.50;99.90;;;;;;4966109;28;20467;-79
2023/05/07 06:47:48;;;;;;;15.20;14.37;;;20.60;99.90;;;;;;4971672;28;20574;-80
2023/05/07 06:50:16;;;;;;;15.77;14.80;;;20.90;99.90;;;;;;4977558;28;20470;-80
2023/05/07 06:52:44;;;;;;;14.73;13.93;;;21.70;99.90;;;;;;4985859;28;20555;-80
2023/05/07 06:55:11;;;;;;;17.10;16.20;;;21.90;99.90;;;;;;4971016;28;20851;-80
2023/05/07 06:57:38;;;;;;;14.93;14.13;;;22.20;99.90;;;;;;4969955;28;20859;-76
2023/05/07 07:00:08;;;;;;;15.40;14.60;;;22.30;99.90;;;;;;4969369;28;20458;-82
2023/05/07 07:02:35;;;;;;;14.70;13.97;;;22.20;99.90;;;;;;4971841;28;21343;-87
2023/05/07 07:05:02;;;;;;;15.20;14.40;;;23.60;97.90;;;;;;4973980;28;20845;-86
2023/05/07 07:07:28;;;;;;;14.83;14.13;;;24.50;95.30;;;;;;4972903;28;20467;-87
2023/05/07 07:09:56;;;;;;;14.80;14.10;;;25.30;93.00;;;;;;4972178;28;20623;-85
2023/05/07 07:12:24;;;;;;;15.30;14.37;;;25.90;91.30;;;;;;4975922;28;20820;-86
2023/05/07 07:14:51;;;;;;;15.93;15.13;;;26.00;90.80;;;;;;4972145;28;20476;-86
2023/05/07 07:17:18;;;;;;;16.93;16.13;;;26.00;90.40;;;;;;4973238;28;20455;-88
2023/05/07 07:19:44;;;;;;;14.63;13.73;;;26.00;90.10;;;;;;4974283;28;20971;-88
2023/05/07 07:22:11;;;;;;;15.10;14.20;;;25.80;91.20;;;;;;4974502;28;21012;-85
2023/05/07 07:24:37;;;;;;;14.70;13.90;;;26.50;90.10;;;;;;4974227;28;20468;-85
2023/05/07 07:27:05;;;;;;;14.07;13.43;;;26.60;88.50;;;;;;4974195;28;20789;-88
2023/05/07 07:29:32;;;;;;;15.00;14.03;;;27.10;85.90;;;;;;4977164;28;20937;-83
2023/05/07 07:31:59;;;;;;;15.17;14.40;;;27.60;84.30;;;;;;4951974;28;20811;-85
2023/05/07 07:34:25;;;;;;;15.03;14.33;;;28.00;83.10;;;;;;4959126;29;20959;-78
2023/05/07 07:36:52;;;;;;;15.27;14.47;;;27.90;82.60;;;;;;4957715;29;20429;-86
2023/05/07 07:39:19;;;;;;;14.63;13.73;;;28.00;82.50;;;;;;4957048;29;20472;-87
2023/05/07 07:41:45;;;;;;;13.90;13.10;;;28.50;78.00;;;;;;4955147;29;20456;-89
2023/05/07 07:44:13;;;;;;;14.37;13.67;;;28.00;80.70;;;;;;4968675;29;20472;-80
2023/05/07 07:46:41;;;;;;;15.63;14.70;;;28.10;80.20;;;;;;4958409;29;20971;-85
2023/05/07 07:49:07;;;;;;;14.97;14.30;;;28.30;80.20;;;;;;4949482;29;20452;-83
2023/05/07 07:51:35;;;;;;;14.23;13.47;;;29.60;75.30;;;;;;4952784;29;20483;-82
2023/05/07 07:54:02;;;;;;;12.60;12.10;;;30.10;73.80;;;;;;4953551;29;20459;-82
2023/05/07 07:56:29;;;;;;;13.00;12.43;;;30.90;70.30;;;;;;4953315;29;20452;-85
2023/05/07 07:58:56;;;;;;;13.60;13.00;;;30.90;68.50;;;;;;4949890;29;20967;-83
2023/05/07 08:01:23;;;;;;;13.40;12.90;;;31.10;68.40;;;;;;4951610;29;20465;-83
2023/05/07 08:03:50;;;;;;;13.10;12.60;;;31.40;67.80;;;;;;4954509;29;20499;-87
2023/05/07 08:06:17;;;;;;;14.10;13.50;;;31.20;67.40;;;;;;4953872;29;20452;-86
2023/05/07 08:08:44;;;;;;;14.00;13.50;;;31.20;66.50;;;;;;4954004;28;20480;-89
2023/05/07 08:11:11;;;;;;;13.30;12.70;;;30.80;67.50;;;;;;4952658;29;20453;-85
2023/05/07 08:13:38;;;;;;;12.10;11.60;;;30.20;68.80;;;;;;4954027;29;20452;-89
2023/05/07 08:16:05;;;;;;;11.60;11.10;;;30.20;69.90;;;;;;4954266;29;20463;-86
2023/05/07 08:18:33;;;;;;;12.30;11.80;;;30.50;68.20;;;;;;4951926;29;20455;-85
2023/05/07 08:21:00;;;;;;;13.50;12.70;;;29.50;69.10;;;;;;4951483;29;20503;-83
2023/05/07 08:23:27;;;;;;;13.73;13.10;;;28.90;72.20;;;;;;4952381;29;20492;-83
2023/05/07 08:25:54;;;;;;;13.50;13.00;;;29.10;72.00;;;;;;4955909;29;20445;-82
2023/05/07 08:28:21;;;;;;;13.60;12.90;;;29.20;71.90;;;;;;4959298;29;20459;-81
2023/05/07 08:30:48;;;;;;;13.40;12.70;;;29.80;70.80;;;;;;4962561;29;20467;-82
2023/05/07 08:33:14;;;;;;;12.97;12.23;;;29.90;69.50;;;;;;4960029;29;20452;-84
2023/05/07 08:35:42;;;;;;;12.93;12.33;;;30.20;69.30;;;;;;4957937;28;20452;-86
2023/05/07 08:38:09;;;;;;;13.67;13.07;;;30.70;67.30;;;;;;4966191;29;20448;-87
2023/05/07 08:40:40;;;;;;;14.27;13.50;;;30.70;67.40;;;;;;4973358;29;20456;-87
2023/05/07 08:43:07;;;;;;;13.00;12.50;;;30.30;67.20;;;;;;4971424;29;20476;-84
2023/05/07 08:45:35;;;;;;;13.10;12.40;;;30.00;69.00;;;;;;4969048;29;20448;-82
2023/05/07 08:48:05;;;;;;;13.57;12.93;;;30.60;67.90;;;;;;4965539;29;20440;-83
2023/05/07 08:50:32;;;;;;;13.67;13.07;;;30.50;67.50;;;;;;4960917;29;20460;-85
2023/05/07 08:53:00;;;;;;;12.70;12.20;;;29.90;68.60;;;;;;4954956;29;20957;-83
2023/05/07 08:55:30;;;;;;;13.73;13.13;;;29.90;69.90;;;;;;4954728;29;20863;-83
2023/05/07 08:57:56;;;;;;;12.80;12.23;;;30.00;69.40;;;;;;4957106;29;20516;-84
2023/05/07 09:00:23;;;;;;;13.30;12.80;;;30.20;69.40;;;;;;4954045;29;20457;-83
2023/05/07 09:02:50;;;;;;;13.60;13.00;;;31.00;66.50;;;;;;4954324;29;20821;-85
2023/05/07 09:05:17;;;;;;;13.70;13.20;;;31.70;65.40;;;;;;4956128;29;20444;-88
2023/05/07 09:07:44;;;;;;;13.83;13.30;;;31.80;64.60;;;;;;4954604;28;20482;-86
2023/05/07 09:10:12;;;;;;;14.17;13.47;;;32.10;64.50;;;;;;4956916;29;20511;-88
2023/05/07 09:12:40;;;;;;;14.73;14.03;;;31.90;63.10;;;;;;4954949;29;20456;-83
2023/05/07 09:15:08;;;;;;;13.60;13.00;;;30.40;66.90;;;;;;4954669;29;20460;-82
2023/05/07 09:17:35;;;;;;;13.50;13.00;;;31.20;65.50;;;;;;4954719;29;20453;-84
2023/05/07 09:20:04;;;;;;;13.63;12.97;;;31.60;63.30;;;;;;4954136;29;20460;-85
2023/05/07 09:22:32;;;;;;;12.93;12.23;;;32.10;63.10;;;;;;4954496;29;20558;-87
2023/05/07 09:24:59;;;;;;;13.37;12.87;;;33.00;61.20;;;;;;4956577;29;20452;-87
2023/05/07 09:27:27;;;;;;;14.43;13.73;;;33.20;60.50;;;;;;4957764;29;20477;-83
2023/05/07 09:29:54;;;;;;;12.93;12.43;;;33.10;60.00;;;;;;4957373;29;20455;-85
2023/05/07 09:32:20;;;;;;;13.17;12.63;;;33.90;58.50;;;;;;4957127;29;20466;-85
2023/05/07 09:34:47;;;;;;;14.10;13.60;;;34.80;58.70;;;;;;4956432;29;20464;-86
2023/05/07 09:37:14;;;;;;;13.50;13.00;;;34.30;58.80;;;;;;4955203;29;20463;-85
2023/05/07 09:39:42;;;;;;;13.33;12.80;;;34.40;58.70;;;;;;4955074;29;20449;-85
2023/05/07 09:42:08;;;;;;;13.77;13.27;;;34.80;58.30;;;;;;4955222;29;20456;-86
2023/05/07 09:44:37;;;;;;;13.90;13.40;;;35.20;56.80;;;;;;4954712;29;20488;-85
2023/05/07 09:47:06;;;;;;;14.30;13.40;;;34.90;57.40;;;;;;4955178;28;20457;-85
2023/05/07 09:49:35;;;;;;;14.13;13.53;;;35.30;56.60;;;;;;4957615;29;20463;-90
2023/05/07 09:52:03;;;;;;;13.83;13.33;;;35.70;54.70;;;;;;4955855;29;20474;-89
2023/05/07 09:54:30;;;;;;;13.93;13.40;;;36.10;64.10;;;;;;4958391;29;20568;-88
2023/05/07 09:56:59;;;;;;;14.60;13.80;;;36.10;59.50;;;;;;4960371;29;20463;-88
2023/05/07 09:59:27;;;;;;;13.50;13.00;;;35.60;58.80;;;;;;4956729;29;20479;-88
2023/05/07 10:01:58;;;;;;;13.30;12.80;;;36.10;57.70;;;;;;4957363;29;20457;-86
2023/05/07 10:04:26;;;;;;;13.60;13.00;;;34.50;57.30;;;;;;4957219;29;20491;-85
2023/05/07 10:06:55;;;;;;;12.90;12.37;;;33.10;59.90;;;;;;4953470;29;20806;-85
2023/05/07 10:09:22;;;;;;;13.73;13.23;;;32.80;61.20;;;;;;4953301;28;20571;-84
2023/05/07 10:11:50;;;;;;;13.90;13.20;;;34.00;59.10;;;;;;4953239;29;20444;-84
2023/05/07 10:14:17;;;;;;;13.60;13.10;;;34.10;57.60;;;;;;4953075;29;20833;-84
2023/05/07 10:16:44;;;;;;;13.50;12.93;;;34.10;57.30;;;;;;4953200;29;20464;-85
2023/05/07 10:19:13;;;;;;;11.87;11.47;;;34.20;56.80;;;;;;4953223;29;20457;-86
2023/05/07 10:21:43;;;;;;;12.67;12.17;;;34.30;58.00;;;;;;4954536;29;20464;-86
2023/05/07 10:24:14;;;;;;;13.30;12.80;;;33.70;57.80;;;;;;4953822;29;20474;-85
2023/05/07 10:26:43;;;;;;;14.80;13.90;;;33.10;59.00;;;;;;4953047;29;20453;-85
2023/05/07 10:29:18;;;;;;;13.50;13.00;;;32.80;58.50;;;;;;4953066;29;20460;-85
2023/05/07 10:31:56;;;;;;;13.57;13.07;;;32.70;59.00;;;;;;4952696;29;20452;-84
2023/05/07 10:34:27;;;;;;;13.57;13.07;;;32.60;59.30;;;;;;4952811;29;20970;-86
2023/05/07 10:36:54;;;;;;;13.70;12.97;;;33.40;59.50;;;;;;4953190;29;20452;-88
2023/05/07 10:39:22;;;;;;;13.60;13.10;;;32.60;59.70;;;;;;4952798;29;20471;-82
2023/05/07 10:41:49;;;;;;;12.80;12.30;;;32.40;60.30;;;;;;4952998;29;20520;-84
2023/05/07 10:44:27;;;;;;;12.67;12.17;;;33.00;60.50;;;;;;4952799;29;20440;-85
2023/05/07 10:47:08;;;;;;;15.00;14.40;;;34.10;59.30;;;;;;4952647;29;20958;-85
2023/05/07 10:49:37;;;;;;;14.37;13.77;;;34.50;58.10;;;;;;4952971;29;20467;-86
2023/05/07 10:52:15;;;;;;;14.30;13.80;;;34.50;57.20;;;;;;4952881;29;20468;-86
2023/05/07 10:54:42;;;;;;;14.23;13.50;;;34.50;61.60;;;;;;4952664;29;20550;-88
2023/05/07 10:57:35;;;;;;;14.33;13.73;;;34.30;62.30;;;;;;4952389;29;20457;-88
2023/05/07 11:00:03;;;;;;;12.03;11.63;;;34.50;60.30;;;;;;4953879;28;20492;-86
2023/05/07 11:03:02;;;;;;;13.60;13.00;;;34.40;60.80;;;;;;4953468;29;20895;-85
2023/05/07 11:05:31;;;;;;;13.70;13.00;;;34.30;61.40;;;;;;4952082;29;20448;-87
2023/05/07 11:07:59;;;;;;;13.97;13.27;;;34.50;61.20;;;;;;4952490;28;20488;-87
2023/05/07 11:10:49;;;;;;;14.93;14.43;;;34.40;60.30;;;;;;4953146;29;20551;-85
2023/05/07 11:13:18;;;;;;;15.63;15.13;;;36.50;90.40;;;;;;4954091;29;20862;-86
2023/05/07 11:15:48;;;;;;;14.17;13.57;;;;;;;;;;4953095;29;20461;-87
2023/05/07 11:18:17;;;;;;;14.83;14.33;;;;;;;;;;4954125;29;20465;-86
2023/05/07 11:20:50;;;;;;;14.20;13.63;;;;;;;;;;4953409;29;20468;-89
2023/05/07 11:24:08;;;;;;;14.10;13.60;;;37.10;90.30;;;;;;4953412;29;20511;-87
2023/05/07 11:26:46;;;;;;;13.50;13.10;;;37.00;90.30;;;;;;4952180;29;20559;-85
2023/05/07 11:29:14;;;;;;;13.80;13.40;;;36.50;90.00;;;;;;4954679;29;20946;-86
2023/05/07 11:31:41;;;;;;;14.20;13.70;;;34.90;90.70;;;;;;4955700;29;20475;-86
2023/05/07 11:34:09;;;;;;;13.20;12.53;;;33.10;91.70;;;;;;4954514;29;20492;-85
2023/05/07 11:36:42;;;;;;;13.73;13.13;;;31.90;92.90;;;;;;4954248;29;20942;-84
2023/05/07 11:39:24;;;;;;;13.67;13.07;;;30.20;93.40;;;;;;4954253;29;20515;-87
2023/05/07 11:41:51;;;;;;;12.67;12.27;;;28.80;95.00;;;;;;4953561;29;20452;-89
2023/05/07 11:44:18;;;;;;;12.80;12.30;;;28.30;95.50;;;;;;4954024;29;20460;-86
2023/05/07 11:46:45;;;;;;;12.57;11.97;;;27.80;96.00;;;;;;4955303;29;20954;-85
2023/05/07 11:49:11;;;;;;;12.70;12.30;;;27.40;97.30;;;;;;4954270;29;20460;-84
2023/05/07 11:51:40;;;;;;;13.67;13.07;;;26.90;97.60;;;;;;4953483;29;20839;-88
2023/05/07 11:54:09;;;;;;;13.10;12.50;;;26.90;97.80;;;;;;4952280;29;20539;-87
2023/05/07 11:56:36;;;;;;;13.07;12.50;;;26.70;97.70;;;;;;4952185;29;20480;-85
2023/05/07 11:59:02;;;;;;;12.90;11.97;;;26.50;98.10;;;;;;4953199;29;20480;-84
2023/05/07 12:01:29;;;;;;;13.50;12.80;;;26.20;98.00;;;;;;4952652;29;20449;-85
2023/05/07 12:03:56;;;;;;;12.70;12.10;;;25.90;98.00;;;;;;4952751;29;20456;-85
2023/05/07 12:06:23;;;;;;;12.33;11.83;;;25.60;97.90;;;;;;4953921;29;20452;-87
2023/05/07 12:08:51;;;;;;;13.00;12.40;;;25.50;98.90;;;;;;4953297;28;20476;-85
2023/05/07 12:11:23;;;;;;;11.63;11.23;;;25.30;99.30;;;;;;4956718;28;20449;-74
2023/05/07 12:13:50;;;;;;;11.83;11.33;;;25.20;99.50;;;;;;4955489;29;20507;-74
2023/05/07 12:16:17;;;;;;;13.90;13.30;;;24.80;99.90;;;;;;4951659;29;20456;-72
2023/05/07 12:18:44;;;;;;;23.00;22.10;;;24.70;99.90;;;;;;4952480;29;20868;-75
2023/05/07 12:21:12;;;;;;;30.80;29.40;;;23.80;99.90;;;;;;4955216;29;20448;-76
2023/05/07 12:23:39;;;;;;;35.83;33.73;;;22.80;95.80;;;;;;4954854;29;20455;-70
2023/05/07 12:26:07;;;;;;;44.77;41.80;;;21.90;99.90;;;;;;4954697;29;20958;-71
2023/05/07 12:28:38;;;;;;;45.37;42.57;;;21.00;99.90;;;;;;4955071;29;20885;-70
2023/05/07 12:31:06;;;;;;;46.07;43.07;;;19.70;99.90;;;;;;4954658;29;20463;-70
2023/05/07 12:33:33;;;;;;;47.75;44.45;;;19.10;99.90;;;;;;4954269;29;20898;-72
2023/05/07 12:36:04;;;;;;;41.03;38.73;;;18.70;99.90;;;;;;4954567;29;20705;-71
2023/05/07 12:38:36;;;;;;;42.80;40.40;;;18.60;99.90;;;;;;4954747;29;20459;-72
2023/05/07 12:41:03;;;;;;;44.00;41.70;;;18.30;99.90;;;;;;4949747;29;20449;-71
2023/05/07 12:43:31;;;;;;;44.00;41.50;;;18.20;99.90;;;;;;4954087;29;20947;-72
2023/05/07 12:46:01;;;;;;;47.37;44.47;;;18.20;99.90;;;;;;4954333;29;20460;-73
2023/05/07 12:48:28;;;;;;;46.20;43.40;;;18.20;99.90;;;;;;4954025;29;20472;-72
2023/05/07 12:50:55;;;;;;;45.13;42.37;;;18.20;99.90;;;;;;4954074;29;20727;-71
2023/05/07 12:53:23;;;;;;;45.47;42.77;;;18.10;99.90;;;;;;4954162;29;20930;-72
2023/05/07 12:55:51;;;;;;;42.80;40.20;;;18.10;99.90;;;;;;4954721;29;20463;-72
2023/05/07 12:58:19;;;;;;;44.40;41.70;;;18.20;99.90;;;;;;4954681;29;20460;-70
2023/05/07 13:00:50;;;;;;;40.53;38.13;;;18.10;99.90;;;;;;4954388;29;20456;-71
2023/05/07 13:03:24;;;;;;;41.50;39.10;;;17.90;99.90;;;;;;4954504;29;20476;-71
2023/05/07 13:05:51;;;;;;;44.87;41.90;;;17.80;99.90;;;;;;4954208;29;20527;-70
2023/05/07 13:08:31;;;;;;;44.57;41.83;;;17.60;99.90;;;;;;4954379;28;20472;-71
2023/05/07 13:11:02;;;;;;;44.70;41.60;;;17.50;99.90;;;;;;4954002;29;20460;-71
2023/05/07 13:13:29;;;;;;;43.97;41.70;;;17.00;99.90;;;;;;4954150;29;20453;-71
2023/05/07 13:15:57;;;;;;;41.30;39.00;;;16.70;99.90;;;;;;4954084;29;20452;-72
2023/05/07 13:18:25;;;;;;;44.40;41.10;;;16.40;99.90;;;;;;4953948;29;20456;-71
2023/05/07 13:20:52;;;;;;;41.20;38.70;;;16.30;99.90;;;;;;4953973;29;20449;-71
2023/05/07 13:23:19;;;;;;;37.67;35.87;;;16.10;99.90;;;;;;4953259;28;20452;-71
2023/05/07 13:25:45;;;;;;;38.50;36.70;;;16.50;99.90;;;;;;4953928;29;20495;-70
2023/05/07 13:28:12;;;;;;;39.17;37.07;;;16.40;99.90;;;;;;4965258;28;20454;-71
2023/05/07 13:30:41;;;;;;;43.80;41.40;;;16.00;99.90;;;;;;4972272;28;20511;-70
2023/05/07 13:33:09;;;;;;;41.10;39.10;;;15.90;99.90;;;;;;4972962;28;20460;-70
2023/05/07 13:35:37;;;;;;;39.50;37.50;;;15.60;99.90;;;;;;4973104;28;20455;-70
2023/05/07 13:38:04;;;;;;;38.50;36.70;;;15.60;99.90;;;;;;4972927;28;20447;-71
2023/05/07 13:40:30;;;;;;;38.50;36.60;;;15.50;99.90;;;;;;4973280;28;20456;-71
2023/05/07 13:43:00;;;;;;;37.10;35.27;;;15.30;99.90;;;;;;4973029;28;20455;-73
2023/05/07 13:45:29;;;;;;;37.20;35.23;;;15.10;99.90;;;;;;4973321;28;21237;-72
2023/05/07 13:47:56;;;;;;;37.07;35.10;;;15.30;99.90;;;;;;4973775;28;20510;-73
2023/05/07 13:50:24;;;;;;;37.83;35.83;;;15.10;99.90;;;;;;4974340;28;20830;-74
2023/05/07 13:52:51;;;;;;;39.63;37.53;;;15.40;99.90;;;;;;4975253;28;20456;-73
2023/05/07 13:55:18;;;;;;;39.87;37.67;;;15.60;99.90;;;;;;4976614;28;20451;-74
2023/05/07 13:57:45;;;;;;;41.13;38.67;;;15.40;99.90;;;;;;4977005;28;20447;-74
2023/05/07 14:00:13;;;;;;;41.13;38.77;;;15.60;99.90;;;;;;4974981;28;20452;-74
2023/05/07 14:02:40;;;;;;;40.80;38.60;;;15.60;99.90;;;;;;4972490;28;20444;-73
2023/05/07 14:05:07;;;;;;;39.53;37.33;;;15.70;99.90;;;;;;4972427;28;20495;-72
2023/05/07 14:07:35;;;;;;;39.67;37.37;;;15.80;99.90;;;;;;4972554;28;20526;-76
2023/05/07 14:10:02;;;;;;;42.00;39.50;;;15.80;99.90;;;;;;4972607;28;20619;-74
2023/05/07 14:12:29;;;;;;;40.87;38.60;;;15.80;99.90;;;;;;4972652;28;20466;-74
2023/05/07 14:14:56;;;;;;;36.97;35.07;;;15.80;99.90;;;;;;4972344;28;20475;-75
2023/05/07 14:17:24;;;;;;;39.77;37.37;;;15.60;99.90;;;;;;4972361;28;20452;-75
2023/05/07 14:19:53;;;;;;;39.00;36.80;;;16.10;99.90;;;;;;4972145;28;20459;-75
2023/05/07 14:22:21;;;;;;;38.57;36.33;;;15.60;99.90;;;;;;4972311;28;20767;-73
2023/05/07 14:24:49;;;;;;;37.50;35.40;;;15.70;99.90;;;;;;4972224;28;20553;-74
2023/05/07 14:27:16;;;;;;;38.33;36.10;;;15.70;99.90;;;;;;4972114;28;20964;-73
2023/05/07 14:29:43;;;;;;;37.33;35.13;;;15.80;99.90;;;;;;4972150;28;20455;-74
2023/05/07 14:32:09;;;;;;;37.53;35.53;;;15.70;99.90;;;;;;4972009;28;20460;-74
2023/05/07 14:34:36;;;;;;;38.13;36.03;;;15.70;99.90;;;;;;4970995;28;20456;-74
2023/05/07 14:37:03;;;;;;;38.60;36.40;;;15.60;99.90;;;;;;4972158;28;20456;-74
2023/05/07 14:39:29;;;;;;;38.03;36.03;;;15.80;99.90;;;;;;4971860;28;20968;-74
2023/05/07 14:41:58;;;;;;;42.53;40.13;;;15.60;99.90;;;;;;4971850;28;20811;-74
2023/05/07 14:44:24;;;;;;;42.53;40.13;;;15.80;99.90;;;;;;4971378;28;20502;-74
2023/05/07 14:46:51;;;;;;;38.13;36.03;;;16.00;99.90;;;;;;4971612;28;20455;-75
2023/05/07 14:49:18;;;;;;;37.93;35.67;;;16.10;99.90;;;;;;4971921;28;20459;-74
2023/05/07 14:51:46;;;;;;;39.00;36.77;;;16.20;99.90;;;;;;4971588;28;20456;-74
2023/05/07 14:54:12;;;;;;;39.87;37.77;;;16.40;99.90;;;;;;4966403;28;20570;-75
2023/05/07 14:56:39;;;;;;;41.70;39.23;;;16.50;99.90;;;;;;4970895;28;20456;-73
2023/05/07 14:59:08;;;;;;;40.90;38.70;;;16.20;99.90;;;;;;4971241;28;20463;-74
2023/05/07 15:01:35;;;;;;;39.43;37.23;;;16.20;99.90;;;;;;4971065;28;20455;-74
2023/05/07 15:04:02;;;;;;;39.00;36.93;;;16.10;99.90;;;;;;4971105;28;20463;-74
2023/05/07 15:06:29;;;;;;;37.47;35.37;;;16.40;99.90;;;;;;4970887;28;20456;-74
2023/05/07 15:08:56;;;;;;;38.07;36.07;;;16.10;99.90;;;;;;4970828;28;20538;-74
2023/05/07 15:11:23;;;;;;;40.27;38.37;;;16.30;99.90;;;;;;4971178;28;20456;-74
2023/05/07 15:13:50;;;;;;;38.10;35.83;;;16.20;99.90;;;;;;4971291;28;20460;-74
2023/05/07 15:16:18;;;;;;;38.20;36.20;;;16.70;99.90;;;;;;4971416;28;20455;-75
2023/05/07 15:18:45;;;;;;;39.00;37.00;;;16.40;99.90;;;;;;4971158;28;20978;-75
2023/05/07 15:21:12;;;;;;;38.93;36.93;;;16.60;99.90;;;;;;4970839;28;20459;-75
2023/05/07 15:23:38;;;;;;;40.27;38.10;;;16.50;99.90;;;;;;4972930;28;20462;-74
2023/05/07 15:26:07;;;;;;;40.13;37.90;;;16.70;99.90;;;;;;4981861;28;20505;-75
2023/05/07 15:28:34;;;;;;;40.90;38.60;;;16.60;99.90;;;;;;4979207;28;20812;-75
2023/05/07 15:31:00;;;;;;;42.10;39.80;;;16.90;99.90;;;;;;4971146;28;20506;-74
2023/05/07 15:33:28;;;;;;;41.40;38.87;;;17.10;99.90;;;;;;4987478;28;20447;-74
2023/05/07 15:35:58;;;;;;;41.00;38.70;;;17.60;99.90;;;;;;4990252;28;20455;-74
2023/05/07 15:38:25;;;;;;;41.27;38.87;;;17.30;99.90;;;;;;4993506;28;20847;-73
2023/05/07 15:40:52;;;;;;;41.10;38.80;;;17.40;99.90;;;;;;4987784;28;20448;-73